Αναφορές METAR Αεροδρομίων

 

LGTS - THESSALONIKI - GREECE
Ενημερώθηκε: 21/01/2021 10:50
Αραιές Νεφώσεις
Αραιές Νεφώσεις
 Ανεμος από varies
Ανεμος: varies 2 km/h
Θερμοκρασία: 7°C
Σημείο Δρόσου: 2°C
Υγρασία: 71%
Βαρόμετρο: 1027 hPa
Clouds: Αραιές Νεφώσεις
Visibility: 10 km
Cloud details: Αραιές Νεφώσεις 762 m
2021/01/21 08:50 LGTS 210850Z VRB01KT 9999 FEW025 07/02 Q1027 NOSIG
LGLR - LARTISA - GREECE
Ενημερώθηκε: 20/01/2021 20:50
NOT Current
Αίθριος
Αίθριος
 Ανεμος από calm
Ανεμος: Απνοια
Θερμοκρασία: 3°C
Σημείο Δρόσου: -1°C
Υγρασία: 75%
Βαρόμετρο: 1026 hPa
Περίληψη: Αίθριος
Visibility: greater than 10 km
2021/01/20 18:50 LGLR 201850Z 00000KT CAVOK 03/M01 Q1026 BLU
 
LGKZ - KOZANI - GREECE
Ενημερώθηκε: 21/01/2021 10:50
Σχεδόν νεφελώδης
Σχεδόν νεφελώδης
 Ανεμος από calm
Ανεμος: Απνοια
Θερμοκρασία: 5°C
Σημείο Δρόσου: -2°C
Υγρασία: 61%
Βαρόμετρο: 1025 hPa
Clouds: Σχεδόν νεφελώδης
Visibility: 10 km
Cloud details: Μερικώς νεφελώδης 610 m
Σχεδόν νεφελώδης 2134 m
2021/01/21 08:50 LGKZ 210850Z 00000KT 9999 SCT020 BKN070 05/M02 Q1025
LGKV - KAVALA - GREECE
Ενημερώθηκε: 21/01/2021 10:50
Αραιές Νεφώσεις
Αραιές Νεφώσεις
 Ανεμος από varies
Ανεμος: varies 6 km/h
Θερμοκρασία: 6°C
Σημείο Δρόσου: 2°C
Υγρασία: 76%
Βαρόμετρο: 1026 hPa
Clouds: Αραιές Νεφώσεις
Visibility: 10 km
Cloud details: Αραιές Νεφώσεις 914 m
2021/01/21 08:50 LGKV 210850Z VRB03KT 9999 FEW030 06/02 Q1026
 
LGIO - IOANNINA - GREECE
Ενημερώθηκε: 21/01/2021 10:50
Ασθενής βροχή, Συννεφιά
Ασθενής βροχή, Συννεφιά
 Ανεμος από calm
Ανεμος: Απνοια
Θερμοκρασία: 6°C
Σημείο Δρόσου: 6°C
Υγρασία: 100%
Βαρόμετρο: 1026 hPa
Περίληψη: Ασθενής βροχή
Clouds: Συννεφιά
Visibility: 10 km
Cloud details: Αραιές Νεφώσεις 122 m
Μερικώς νεφελώδης 457 m
Συννεφιά 762 m
2021/01/21 08:50 LGIO 210850Z 00000KT 9999 -RA FEW004 SCT015 OVC025 06/06 Q1026
LGBL - BOLOS - GREECE
Ενημερώθηκε: 21/01/2021 10:50
Αραιές Νεφώσεις
Αραιές Νεφώσεις
 Ανεμος από calm
Ανεμος: Απνοια
Θερμοκρασία: 12°C
Σημείο Δρόσου: 3°C
Υγρασία: 54%
Βαρόμετρο: 1027 hPa
Clouds: Αραιές Νεφώσεις
Visibility: 10 km
Cloud details: Αραιές Νεφώσεις 762 m
2021/01/21 08:50 LGBL 210850Z 00000KT 9999 FEW025 12/03 Q1027
 
LGMT - MITILINI - GREECE
Ενημερώθηκε: 21/01/2021 10:50
Μερικώς νεφελώδης
Μερικώς νεφελώδης
 Ανεμος από ΝΑ
Ανεμος: ΝΑ 17 km/h
Θερμοκρασία: 10°C
Wind Chill: 8°C
Σημείο Δρόσου: 3°C
Υγρασία: 62%
Βαρόμετρο: 1029 hPa
Clouds: Μερικώς νεφελώδης
Visibility: 10 km
Cloud details: Μερικώς νεφελώδης 762 m
2021/01/21 08:50 LGMT 210850Z 14009KT 9999 SCT025 10/03 Q1029
LGAV - ATHENS - GREECE
Ενημερώθηκε: 21/01/2021 10:50
Αίθριος
Αίθριος
 Ανεμος από ΝΝΔ
Ανεμος: ΝΝΔ 15 km/h
Θερμοκρασία: 14°C
Σημείο Δρόσου: 5°C
Υγρασία: 55%
Βαρόμετρο: 1028 hPa
Περίληψη: Αίθριος
Visibility: greater than 10 km
2021/01/21 08:50 LGAV 210850Z 21008KT CAVOK 14/05 Q1028 NOSIG
 
LGRP - RODOS - GREECE
Ενημερώθηκε: 21/01/2021 10:50
Αραιές Νεφώσεις
Αραιές Νεφώσεις
 Ανεμος από varies
Ανεμος: varies 4 km/h
Θερμοκρασία: 12°C
Σημείο Δρόσου: 6°C
Υγρασία: 67%
Βαρόμετρο: 1030 hPa
Clouds: Αραιές Νεφώσεις
Visibility: 10 km
Cloud details: Αραιές Νεφώσεις 549 m
2021/01/21 08:50 LGRP 210850Z VRB02KT 9999 FEW018 12/06 Q1030 NOSIG
LGIR - HRAKLIO/KRITI - GREECE
Ενημερώθηκε: 21/01/2021 10:50
Μερικώς νεφελώδης
Μερικώς νεφελώδης
 Ανεμος από ΝΝΑ
Ανεμος: ΝΝΑ 11 km/h
Θερμοκρασία: 16°C
Σημείο Δρόσου: 8°C
Υγρασία: 59%
Βαρόμετρο: 1030 hPa
Clouds: Μερικώς νεφελώδης
Visibility: 10 km
Cloud details: Αραιές Νεφώσεις 762 m
Μερικώς νεφελώδης 2438 m
2021/01/21 08:50 LGIR 210850Z 15006KT 9999 FEW025 SCT080 16/08 Q1030 NOSIG
 
LGMK - MIKONOS - GREECE
Ενημερώθηκε: 21/01/2021 10:50
Αραιές Νεφώσεις
Αραιές Νεφώσεις
 Ανεμος από ΔΝΔ
Ανεμος: ΔΝΔ 15 km/h
Θερμοκρασία: 14°C
Σημείο Δρόσου: 6°C
Υγρασία: 59%
Βαρόμετρο: 1028 hPa
Clouds: Αραιές Νεφώσεις
Visibility: 10 km
Cloud details: Αραιές Νεφώσεις 549 m
2021/01/21 08:50 LGMK 210850Z 24008KT 9999 FEW018 14/06 Q1028
LGKR - KERKIRA - GREECE
Ενημερώθηκε: 21/01/2021 10:50
Ασθενής βροχή, Σχεδόν νεφελώδης
Ασθενής βροχή, Σχεδόν νεφελώδης
 Ανεμος από ΑΝΑ
Ανεμος: ΑΝΑ 19 km/h
Θερμοκρασία: 12°C
Σημείο Δρόσου: 11°C
Υγρασία: 94%
Βαρόμετρο: 1025 hPa
Περίληψη: Ασθενής βροχή
Clouds: Σχεδόν νεφελώδης
Visibility: 9 km
Cloud details: Αραιές Νεφώσεις 305 m
Μερικώς νεφελώδης 457 m
Σχεδόν νεφελώδης 762 m
2021/01/21 08:50 LGKR 210850Z 12010KT 9000 -RA FEW010 SCT015 BKN025 12/11 Q1025 NOSIG